North Leigh, United Kingdom
Current Conditions -  °F | °C
As of 10:20 PM on Saturday 25 Oct 2014 (Local Time) from EGTK Reporting Station
Broken Clouds Broken Clouds  
Wind Chill: 52°   Ceiling: 2500
Heat Index: 52°   Visibility: 6mi
Dew Point: 50°   Wind: 6mph
Humidity: 94%   Direction: 200°SSW
Pressure: 30.12"   Gusts: NA
Location:  51.81°N, 1.44°W
Report Text: EGTK 252120Z 20005KT 9999 BKN025 BKN037 11/10 Q1020
Loading
Personal Weather Stations






























Interactive Weather Map
Tropical Storm Tracking
New forecast layout! Learn more

10-Day Weather Forecast

Advertisements
Track Severe Weather on mobile